createdAt,value
2023-09-19T00:00:50.129Z,65.33
2023-09-19T00:03:18.096Z,64.93
2023-09-19T00:05:46.635Z,64.95
2023-09-19T00:08:16.832Z,64.45
2023-09-19T00:10:45.398Z,64.24
2023-09-19T00:13:16.740Z,64.86
2023-09-19T00:15:52.061Z,64.41
2023-09-19T00:18:23.750Z,63.32
2023-09-19T00:20:53.511Z,63.49
2023-09-19T00:23:21.414Z,63.89
2023-09-19T00:25:49.747Z,63.83
2023-09-19T00:28:18.390Z,63.52
2023-09-19T00:30:46.383Z,63.67
2023-09-19T00:33:17.893Z,64.08
2023-09-19T00:35:50.174Z,64.58
2023-09-19T00:38:18.373Z,66.13
2023-09-19T00:40:47.104Z,66.86
2023-09-19T00:43:14.101Z,67.76
2023-09-19T00:45:43.886Z,68.61
2023-09-19T00:48:11.306Z,69.33
2023-09-19T00:50:44.952Z,69.86
2023-09-19T00:53:19.845Z,70.32
2023-09-19T00:55:47.560Z,70.32
2023-09-19T00:58:14.559Z,69.82
2023-09-19T01:00:41.733Z,69.92
2023-09-19T01:03:08.824Z,70.58
2023-09-19T01:05:35.840Z,70.24
2023-09-19T01:08:03.219Z,70.35
2023-09-19T01:10:30.237Z,70.55
2023-09-19T01:13:20.882Z,69.20
2023-09-19T01:16:13.452Z,69.14
2023-09-19T01:18:54.441Z,70.07
2023-09-19T01:21:35.690Z,70.11
2023-09-19T01:24:41.571Z,70.72
2023-09-19T01:27:35.007Z,70.56
2023-09-19T01:30:23.707Z,70.74
2023-09-19T01:32:53.763Z,70.86
2023-09-19T01:35:20.803Z,70.59
2023-09-19T01:37:47.720Z,70.32
2023-09-19T01:40:20.705Z,70.58
2023-09-19T01:43:43.977Z,70.85
2023-09-19T01:46:31.650Z,70.75
2023-09-19T01:49:03.661Z,71.04
2023-09-19T01:52:07.730Z,71.26
2023-09-19T01:54:39.484Z,70.67
2023-09-19T01:57:16.021Z,70.34
2023-09-19T01:59:55.596Z,70.65
2023-09-19T02:02:24.037Z,70.59
2023-09-19T02:04:51.788Z,70.12
2023-09-19T02:07:18.845Z,69.56
2023-09-19T02:09:45.750Z,69.79
2023-09-19T02:12:12.693Z,70.08
2023-09-19T02:14:39.611Z,70.55
2023-09-19T02:17:08.438Z,70.29
2023-09-19T02:19:35.571Z,70.31
2023-09-19T02:22:08.889Z,70.09
2023-09-19T02:24:36.525Z,70.37
2023-09-19T02:27:05.534Z,70.88
2023-09-19T02:29:32.813Z,70.45
2023-09-19T02:32:00.305Z,70.05
2023-09-19T02:34:27.798Z,70.21
2023-09-19T02:36:57.278Z,70.15
2023-09-19T02:39:25.135Z,69.48
2023-09-19T02:41:52.101Z,69.77
2023-09-19T02:44:20.794Z,70.07
2023-09-19T02:46:48.639Z,70.49
2023-09-19T02:49:15.914Z,70.31
2023-09-19T02:51:42.891Z,70.55
2023-09-19T02:54:10.008Z,70.01
2023-09-19T02:56:38.396Z,69.95
2023-09-19T02:59:05.621Z,70.15
2023-09-19T03:01:33.524Z,70.61
2023-09-19T03:04:00.788Z,71.22
2023-09-19T03:06:27.850Z,71.22
2023-09-19T03:08:54.865Z,71.53
2023-09-19T03:11:24.448Z,71.38
2023-09-19T03:13:54.771Z,71.55
2023-09-19T03:16:23.403Z,71.34
2023-09-19T03:18:50.560Z,71.40
2023-09-19T03:21:18.520Z,71.71
2023-09-19T03:23:48.124Z,71.74
2023-09-19T03:26:17.799Z,71.58
2023-09-19T03:28:44.952Z,71.61
2023-09-19T03:31:12.475Z,70.88
2023-09-19T03:33:40.541Z,71.00
2023-09-19T03:36:08.435Z,70.93
2023-09-19T03:38:35.775Z,71.35
2023-09-19T03:41:03.738Z,71.26
2023-09-19T03:43:30.833Z,71.46
2023-09-19T03:45:57.939Z,71.64
2023-09-19T03:48:25.191Z,70.91
2023-09-19T03:50:53.832Z,71.33
2023-09-19T03:53:20.825Z,71.52
2023-09-19T03:55:48.119Z,71.65
2023-09-19T03:58:15.185Z,71.36
2023-09-19T21:01:06.648Z,67.35
2023-09-19T21:03:37.062Z,66.99
2023-09-19T21:06:09.846Z,67.86
2023-09-19T21:08:37.024Z,68.33
2023-09-19T21:11:17.684Z,68.69
2023-09-19T21:13:46.195Z,69.20
2023-09-19T21:16:16.404Z,68.96
2023-09-19T21:18:45.064Z,68.97
2023-09-19T21:21:12.689Z,68.65
2023-09-19T21:23:40.939Z,68.77
2023-09-19T21:26:08.972Z,68.22
2023-09-19T21:28:36.262Z,68.10
2023-09-19T21:31:05.455Z,67.53
2023-09-19T21:33:39.413Z,67.60
2023-09-19T21:36:21.955Z,67.52
2023-09-19T21:38:49.509Z,67.14
2023-09-19T21:41:18.276Z,67.39
2023-09-19T21:43:46.288Z,67.54
2023-09-19T21:46:13.555Z,68.18
2023-09-19T21:48:41.820Z,68.68
2023-09-19T21:51:09.242Z,68.85
2023-09-19T21:53:37.341Z,68.71
2023-09-19T21:56:06.658Z,69.20
2023-09-19T21:58:36.982Z,69.10
2023-09-19T22:01:07.940Z,68.50
2023-09-19T22:03:37.749Z,68.80
2023-09-19T22:06:09.274Z,68.99
2023-09-19T22:08:37.311Z,70.49
2023-09-19T22:11:04.652Z,70.20
2023-09-19T22:13:32.238Z,69.85
2023-09-19T22:16:00.660Z,70.19
2023-09-19T22:18:29.157Z,69.89
2023-09-19T22:21:04.048Z,69.60
2023-09-19T22:23:37.119Z,69.59
2023-09-19T22:26:04.946Z,70.70
2023-09-19T22:28:36.414Z,70.84
2023-09-19T22:31:13.688Z,70.71
2023-09-19T22:33:41.794Z,70.38
2023-09-19T22:36:09.407Z,69.99
2023-09-19T22:38:36.345Z,69.27
2023-09-19T22:41:07.288Z,70.99
2023-09-19T22:43:35.622Z,71.46
2023-09-19T22:46:08.220Z,71.24
2023-09-19T22:48:35.312Z,70.68
2023-09-19T22:51:07.329Z,70.98
2023-09-19T22:53:36.972Z,71.03
2023-09-19T22:56:12.254Z,70.91
2023-09-19T22:58:43.556Z,71.86
2023-09-19T23:01:28.678Z,70.94
2023-09-19T23:04:11.552Z,70.42
2023-09-19T23:06:49.498Z,70.22
2023-09-19T23:09:24.589Z,69.74
2023-09-19T23:12:07.892Z,69.47
2023-09-19T23:14:40.244Z,69.33
2023-09-19T23:17:23.016Z,69.39
2023-09-19T23:19:51.052Z,69.21
2023-09-19T23:22:18.138Z,69.66
2023-09-19T23:24:51.374Z,69.83
2023-09-19T23:27:26.819Z,70.07
2023-09-19T23:29:56.563Z,70.69
2023-09-19T23:32:23.675Z,70.42
2023-09-19T23:34:50.962Z,70.25
2023-09-19T23:37:21.798Z,70.29
2023-09-19T23:39:48.978Z,71.65
2023-09-19T23:42:16.141Z,72.89
2023-09-19T23:44:43.534Z,72.53
2023-09-19T23:47:12.044Z,72.59
2023-09-19T23:49:42.702Z,73.60
2023-09-19T23:52:12.639Z,72.53
2023-09-19T23:54:41.902Z,72.40
2023-09-19T23:57:11.367Z,72.80
2023-09-19T23:59:44.146Z,71.94
